createdAt,value
2022-11-30T00:02:04.736Z,15.13
2022-11-30T00:04:32.768Z,14.73
2022-11-30T00:07:00.748Z,15.47
2022-11-30T00:09:28.697Z,16.23
2022-11-30T00:11:59.714Z,16.30
2022-11-30T00:14:27.674Z,15.53
2022-11-30T00:16:55.631Z,15.90
2022-11-30T00:19:24.973Z,15.87
2022-11-30T00:21:52.927Z,17.00
2022-11-30T00:24:20.826Z,16.50
2022-11-30T00:26:48.831Z,15.73
2022-11-30T00:29:16.621Z,16.73
2022-11-30T00:31:44.561Z,16.50
2022-11-30T00:34:12.411Z,15.53
2022-11-30T00:36:41.627Z,16.10
2022-11-30T00:39:09.940Z,15.87
2022-11-30T00:41:37.806Z,16.03
2022-11-30T00:44:05.747Z,15.57
2022-11-30T00:46:33.743Z,14.97
2022-11-30T00:49:01.716Z,15.00
2022-11-30T00:51:29.556Z,14.03
2022-11-30T00:53:58.754Z,14.50
2022-11-30T00:56:26.706Z,14.87
2022-11-30T00:58:54.529Z,14.67
2022-11-30T01:01:22.413Z,13.67
2022-11-30T01:03:50.374Z,15.27
2022-11-30T01:06:18.241Z,14.43
2022-11-30T01:08:46.114Z,15.10
2022-11-30T01:11:18.540Z,16.53
2022-11-30T01:13:46.402Z,15.77
2022-11-30T01:16:16.768Z,16.40
2022-11-30T01:18:45.396Z,16.53
2022-11-30T01:21:15.573Z,17.37
2022-11-30T01:23:43.754Z,17.97
2022-11-30T01:26:12.235Z,16.73
2022-11-30T01:28:44.008Z,17.40
2022-11-30T01:31:14.128Z,17.83
2022-11-30T01:33:43.170Z,16.53
2022-11-30T01:36:13.442Z,18.20
2022-11-30T01:38:42.773Z,17.40
2022-11-30T01:41:12.635Z,18.20
2022-11-30T01:43:44.719Z,19.07
2022-11-30T01:46:33.192Z,18.87
2022-11-30T01:49:06.296Z,18.57
2022-11-30T01:51:38.098Z,18.63
2022-11-30T01:54:09.719Z,18.37
2022-11-30T01:56:39.804Z,18.57
2022-11-30T01:59:09.249Z,18.37
2022-11-30T02:01:37.215Z,18.70
2022-11-30T02:04:11.026Z,18.03
2022-11-30T02:06:38.881Z,19.43
2022-11-30T02:09:06.783Z,18.20
2022-11-30T02:11:34.925Z,19.00
2022-11-30T02:14:29.875Z,18.20
2022-11-30T02:17:07.406Z,17.93
2022-11-30T02:20:12.963Z,19.17
2022-11-30T02:22:58.367Z,15.90
2022-11-30T02:25:37.068Z,16.87
2022-11-30T02:28:22.897Z,18.00
2022-11-30T02:30:54.756Z,16.67
2022-11-30T02:33:26.742Z,16.40
2022-11-30T02:35:56.392Z,17.57
2022-11-30T02:38:27.195Z,17.10
2022-11-30T02:40:55.164Z,16.50
2022-11-30T02:43:27.281Z,17.07
2022-11-30T02:46:03.507Z,16.90
2022-11-30T02:48:41.591Z,17.80
2022-11-30T02:51:14.102Z,16.23
2022-11-30T02:53:42.633Z,17.53
2022-11-30T02:56:10.515Z,16.93
2022-11-30T02:58:38.450Z,17.53
2022-11-30T03:01:08.308Z,17.97
2022-11-30T03:03:36.212Z,16.80
2022-11-30T03:06:04.128Z,18.53
2022-11-30T03:08:31.950Z,18.73
2022-11-30T03:11:03.114Z,17.63
2022-11-30T03:13:31.507Z,18.07
2022-11-30T03:15:59.530Z,19.23
2022-11-30T03:18:28.841Z,17.47
2022-11-30T03:20:56.641Z,17.83
2022-11-30T03:23:24.517Z,18.47
2022-11-30T03:25:52.366Z,16.83
2022-11-30T03:28:20.244Z,17.80
2022-11-30T03:30:49.873Z,17.43
2022-11-30T03:33:18.044Z,18.67
2022-11-30T03:35:47.333Z,18.30
2022-11-30T03:38:15.148Z,16.97
2022-11-30T03:40:42.974Z,16.80
2022-11-30T03:43:11.208Z,16.17
2022-11-30T03:45:42.059Z,15.67
2022-11-30T03:48:10.035Z,15.43
2022-11-30T03:50:37.963Z,15.67
2022-11-30T03:53:07.194Z,15.60
2022-11-30T03:55:35.573Z,15.23
2022-11-30T03:58:03.430Z,15.33
2022-11-30T04:00:31.359Z,15.33
2022-11-30T04:02:59.359Z,15.57
2022-11-30T04:05:27.296Z,14.83
2022-11-30T04:07:55.201Z,15.10
2022-11-30T04:10:24.823Z,13.97
2022-11-30T04:12:52.697Z,14.23
2022-11-30T04:15:21.049Z,13.97
2022-11-30T04:17:48.985Z,14.63
2022-11-30T04:20:16.988Z,14.00
2022-11-30T04:22:44.830Z,14.13
2022-11-30T04:25:12.806Z,12.80
2022-11-30T04:27:42.062Z,12.30
2022-11-30T04:30:11.161Z,12.67
2022-11-30T04:32:39.056Z,12.77
2022-11-30T04:35:07.856Z,11.63
2022-11-30T04:37:35.838Z,11.23
2022-11-30T04:40:03.814Z,11.40
2022-11-30T04:42:31.662Z,12.10
2022-11-30T04:45:00.914Z,11.47
2022-11-30T04:47:28.797Z,10.33
2022-11-30T04:49:56.929Z,10.47
2022-11-30T04:52:24.981Z,11.50
2022-11-30T04:54:53.120Z,10.70
2022-11-30T04:57:21.100Z,11.17
2022-11-30T04:59:48.953Z,11.20
2022-11-30T05:02:18.236Z,11.30
2022-11-30T05:04:46.425Z,11.47
2022-11-30T05:07:14.507Z,10.47
2022-11-30T05:09:42.418Z,10.40
2022-11-30T05:12:10.293Z,10.77
2022-11-30T05:14:38.344Z,10.73
2022-11-30T05:17:06.178Z,10.07
2022-11-30T05:19:35.400Z,9.93
2022-11-30T05:22:03.569Z,9.60
2022-11-30T05:24:31.389Z,9.63
2022-11-30T05:26:59.449Z,10.40
2022-11-30T05:29:27.412Z,10.10
2022-11-30T05:31:55.481Z,9.30
2022-11-30T05:34:23.338Z,9.60
2022-11-30T05:36:52.647Z,9.60
2022-11-30T05:39:20.954Z,9.27
2022-11-30T05:41:49.019Z,10.23
2022-11-30T05:44:16.886Z,9.30
2022-11-30T05:46:44.865Z,10.37
2022-11-30T05:49:12.880Z,9.97
2022-11-30T05:51:41.891Z,10.77
2022-11-30T05:54:11.156Z,10.70
2022-11-30T05:56:39.131Z,11.23
2022-11-30T05:59:07.115Z,11.00
2022-11-30T06:01:35.084Z,11.23
2022-11-30T06:04:08.919Z,10.83
2022-11-30T06:06:37.028Z,10.87
2022-11-30T06:09:05.044Z,9.97
2022-11-30T06:11:34.541Z,9.90
2022-11-30T06:14:02.695Z,9.13
2022-11-30T06:16:30.722Z,10.60
2022-11-30T06:18:58.646Z,9.83
2022-11-30T06:21:26.835Z,9.57
2022-11-30T06:23:54.689Z,8.87
2022-11-30T06:26:22.556Z,10.43
2022-11-30T06:28:51.810Z,9.83
2022-11-30T06:31:19.734Z,10.40
2022-11-30T06:33:47.787Z,9.73
2022-11-30T06:36:21.012Z,10.60
2022-11-30T06:38:48.923Z,10.70
2022-11-30T06:41:16.781Z,10.10
2022-11-30T06:43:44.802Z,10.17
2022-11-30T06:46:14.444Z,11.00
2022-11-30T06:48:42.321Z,11.47
2022-11-30T06:51:11.314Z,10.53
2022-11-30T06:53:39.303Z,11.47
2022-11-30T06:56:10.767Z,11.33
2022-11-30T06:58:39.367Z,11.80
2022-11-30T07:01:08.552Z,12.23
2022-11-30T07:03:38.486Z,11.70
2022-11-30T07:06:09.211Z,12.00
2022-11-30T07:08:37.226Z,13.20
2022-11-30T07:11:06.046Z,13.10
2022-11-30T07:13:33.985Z,12.03
2022-11-30T07:16:05.408Z,11.47
2022-11-30T07:18:33.879Z,12.80
2022-11-30T07:21:05.494Z,13.67
2022-11-30T07:23:55.839Z,13.33
2022-11-30T07:26:24.804Z,12.47
2022-11-30T07:28:58.196Z,12.40
2022-11-30T07:31:28.766Z,11.10
2022-11-30T07:33:58.201Z,12.27
2022-11-30T07:36:29.609Z,12.07
2022-11-30T07:38:57.610Z,10.07
2022-11-30T07:41:25.793Z,9.73
2022-11-30T07:43:53.967Z,11.70
2022-11-30T07:46:22.002Z,11.70
2022-11-30T07:48:50.458Z,11.93
2022-11-30T07:51:20.604Z,11.63
2022-11-30T07:53:50.337Z,11.63
2022-11-30T07:56:19.997Z,11.87
2022-11-30T07:58:48.747Z,11.00
2022-11-30T08:01:19.690Z,11.50
2022-11-30T08:03:48.070Z,12.17
2022-11-30T08:06:19.626Z,11.00
2022-11-30T08:08:49.442Z,11.83
2022-11-30T08:11:21.822Z,11.30
2022-11-30T08:13:50.310Z,12.43
2022-11-30T08:16:20.691Z,11.63
2022-11-30T08:18:48.642Z,11.07
2022-11-30T08:21:18.108Z,11.73
2022-11-30T08:23:48.100Z,12.57
2022-11-30T08:26:19.238Z,15.73
2022-11-30T08:28:48.615Z,11.77
2022-11-30T08:31:18.482Z,11.77
2022-11-30T08:33:46.397Z,12.20
2022-11-30T08:36:15.997Z,12.07
2022-11-30T08:38:45.136Z,12.00
2022-11-30T08:41:14.901Z,12.47
2022-11-30T08:43:44.395Z,12.50
2022-11-30T08:46:49.790Z,13.27
2022-11-30T08:49:20.414Z,14.13
2022-11-30T08:54:39.066Z,15.50
2022-11-30T08:57:06.968Z,14.37
2022-11-30T08:59:36.269Z,14.97
2022-11-30T09:02:04.351Z,13.87
2022-11-30T09:04:32.238Z,14.17
2022-11-30T09:07:00.948Z,15.20
2022-11-30T09:09:29.090Z,15.30
2022-11-30T09:11:56.962Z,12.53
2022-11-30T09:14:24.851Z,14.03
2022-11-30T09:16:56.080Z,13.17
2022-11-30T09:19:24.091Z,14.50
2022-11-30T09:21:52.672Z,12.00
2022-11-30T09:24:20.873Z,12.87
2022-11-30T09:26:48.942Z,11.90
2022-11-30T09:29:17.026Z,11.73
2022-11-30T09:31:44.930Z,12.07
2022-11-30T09:34:14.160Z,12.83
2022-11-30T09:36:41.993Z,12.57
2022-11-30T09:39:12.831Z,13.80
2022-11-30T09:42:06.300Z,14.33
2022-11-30T09:44:43.413Z,13.93
2022-11-30T09:47:27.458Z,13.27
2022-11-30T09:50:05.153Z,13.93
2022-11-30T09:52:36.049Z,13.60
2022-11-30T09:55:09.563Z,12.90
2022-11-30T09:57:45.247Z,13.13
2022-11-30T10:00:16.344Z,13.33
2022-11-30T10:02:44.777Z,12.40
2022-11-30T10:05:21.051Z,13.33
2022-11-30T10:08:04.409Z,13.10
2022-11-30T10:10:40.391Z,12.33
2022-11-30T10:13:28.798Z,12.23
2022-11-30T10:16:11.982Z,13.47
2022-11-30T10:18:51.502Z,13.77
2022-11-30T10:21:38.024Z,13.43
2022-11-30T10:24:16.261Z,12.40
2022-11-30T10:26:53.058Z,11.80
2022-11-30T10:29:25.777Z,12.30
2022-11-30T10:31:58.752Z,11.80
2022-11-30T10:34:32.343Z,20.87
2022-11-30T10:37:05.257Z,14.03
2022-11-30T10:39:40.157Z,12.57
2022-11-30T10:42:13.537Z,12.40
2022-11-30T10:44:44.932Z,11.93
2022-11-30T10:47:18.525Z,12.37
2022-11-30T10:49:50.417Z,12.63
2022-11-30T10:52:24.691Z,12.63
2022-11-30T10:55:00.531Z,12.17
2022-11-30T10:57:32.766Z,11.23
2022-11-30T11:00:03.557Z,11.90
2022-11-30T11:02:41.310Z,10.43
2022-11-30T11:05:15.585Z,11.63
2022-11-30T11:07:51.663Z,10.60
2022-11-30T11:10:21.873Z,11.17
2022-11-30T11:12:51.686Z,11.50
2022-11-30T11:15:22.554Z,10.23
2022-11-30T11:17:51.689Z,10.80
2022-11-30T11:20:35.502Z,10.27
2022-11-30T11:23:05.595Z,11.10
2022-11-30T11:25:36.082Z,12.33
2022-11-30T11:28:14.668Z,11.77
2022-11-30T11:30:42.945Z,13.40
2022-11-30T11:33:21.464Z,13.77
2022-11-30T11:35:50.790Z,12.37
2022-11-30T11:38:27.119Z,13.63
2022-11-30T11:40:57.377Z,13.67
2022-11-30T11:43:28.013Z,13.00
2022-11-30T11:45:58.833Z,11.33
2022-11-30T11:48:38.945Z,12.77
2022-11-30T11:51:09.075Z,11.17
2022-11-30T11:53:51.641Z,11.97
2022-11-30T11:56:26.388Z,8.90
2022-11-30T11:58:59.976Z,7.80
2022-11-30T12:01:50.723Z,9.47
2022-11-30T12:04:40.980Z,9.20
2022-11-30T12:07:19.320Z,10.47
2022-11-30T12:09:58.303Z,11.33
2022-11-30T12:12:26.260Z,10.47
2022-11-30T12:14:56.182Z,11.07
2022-11-30T12:17:39.696Z,9.90
2022-11-30T12:20:19.162Z,10.10
2022-11-30T12:23:03.026Z,10.27
2022-11-30T12:25:40.618Z,9.80
2022-11-30T12:28:20.430Z,9.13
2022-11-30T12:31:01.297Z,8.30
2022-11-30T12:33:41.561Z,8.57
2022-11-30T12:36:19.925Z,8.60
2022-11-30T12:38:50.640Z,8.10
2022-11-30T12:41:33.205Z,7.77
2022-11-30T12:44:30.471Z,7.27
2022-11-30T12:47:05.724Z,8.33
2022-11-30T12:49:57.893Z,7.77
2022-11-30T12:52:39.497Z,7.70
2022-11-30T12:55:25.164Z,7.87
2022-11-30T12:58:02.561Z,7.77
2022-11-30T13:00:40.866Z,8.37
2022-11-30T13:03:42.608Z,8.40
2022-11-30T13:06:15.650Z,8.03
2022-11-30T13:08:57.065Z,8.77
2022-11-30T13:11:30.917Z,8.60
2022-11-30T13:14:01.785Z,8.37
2022-11-30T13:16:32.608Z,8.47
2022-11-30T13:19:11.604Z,10.13
2022-11-30T13:21:45.922Z,10.57
2022-11-30T13:24:21.073Z,9.80
2022-11-30T13:26:56.310Z,10.23
2022-11-30T13:29:51.548Z,9.60
2022-11-30T13:32:55.994Z,9.30
2022-11-30T13:35:40.788Z,9.40
2022-11-30T13:41:08.553Z,8.73
2022-11-30T13:43:40.615Z,8.77
2022-11-30T13:46:16.863Z,7.97
2022-11-30T13:48:45.987Z,9.03
2022-11-30T13:51:34.286Z,8.67
2022-11-30T13:54:35.406Z,9.43
2022-11-30T13:57:03.415Z,9.37
2022-11-30T13:59:40.714Z,8.80
2022-11-30T14:03:00.398Z,9.27
2022-11-30T14:05:41.133Z,9.50
2022-11-30T14:08:17.713Z,9.20
2022-11-30T14:10:46.741Z,9.53
2022-11-30T14:13:32.362Z,10.93
2022-11-30T14:16:02.601Z,9.83
2022-11-30T14:18:43.559Z,10.20
2022-11-30T14:21:20.764Z,12.13
2022-11-30T14:23:55.273Z,11.07
2022-11-30T14:26:28.528Z,10.30
2022-11-30T14:29:03.234Z,10.87
2022-11-30T14:31:35.841Z,9.97
2022-11-30T14:34:09.837Z,10.93
2022-11-30T14:36:42.727Z,10.93
2022-11-30T14:39:25.348Z,11.33
2022-11-30T14:41:53.390Z,11.57
2022-11-30T14:44:21.269Z,10.47
2022-11-30T14:46:49.263Z,11.63
2022-11-30T14:49:18.562Z,10.63
2022-11-30T14:51:50.482Z,10.53
2022-11-30T14:54:35.651Z,10.40
2022-11-30T14:57:09.792Z,9.83
2022-11-30T14:59:47.309Z,9.63
2022-11-30T15:02:37.186Z,10.77
2022-11-30T15:05:07.852Z,9.63
2022-11-30T15:07:37.887Z,9.97
2022-11-30T15:10:09.121Z,9.80
2022-11-30T15:12:41.635Z,10.40
2022-11-30T15:15:19.054Z,11.47
2022-11-30T15:17:52.779Z,10.57
2022-11-30T15:20:26.936Z,12.00
2022-11-30T15:22:58.666Z,14.07
2022-11-30T15:25:35.942Z,10.80
2022-11-30T15:28:04.924Z,10.87
2022-11-30T15:30:35.554Z,10.80
2022-11-30T15:33:03.739Z,11.30
2022-11-30T15:35:57.047Z,11.70
2022-11-30T15:38:23.155Z,11.57
2022-11-30T15:40:55.209Z,13.03
2022-11-30T15:43:26.079Z,12.03
2022-11-30T15:45:57.104Z,11.80
2022-11-30T15:48:30.848Z,11.47
2022-11-30T15:50:59.193Z,11.43
2022-11-30T15:53:34.127Z,13.03
2022-11-30T15:56:05.230Z,11.27
2022-11-30T15:58:45.387Z,11.90
2022-11-30T16:01:16.924Z,11.17
2022-11-30T16:04:03.047Z,12.43
2022-11-30T16:06:33.624Z,11.43
2022-11-30T16:09:07.245Z,12.07
2022-11-30T16:11:36.630Z,11.53
2022-11-30T16:14:04.685Z,11.83
2022-11-30T16:16:33.910Z,11.40
2022-11-30T16:19:01.755Z,11.07
2022-11-30T16:21:29.635Z,11.03
2022-11-30T16:23:57.485Z,11.57
2022-11-30T16:26:50.040Z,11.37
2022-11-30T16:29:14.560Z,11.50
2022-11-30T16:31:42.541Z,10.50
2022-11-30T16:34:12.488Z,11.00
2022-11-30T16:36:40.287Z,11.07
2022-11-30T16:39:11.996Z,11.60
2022-11-30T16:41:41.454Z,10.60
2022-11-30T16:44:14.733Z,10.97
2022-11-30T16:46:42.710Z,11.57
2022-11-30T16:49:10.613Z,10.77
2022-11-30T16:51:41.679Z,10.37
2022-11-30T16:54:12.360Z,11.20
2022-11-30T16:56:41.618Z,12.63
2022-11-30T16:59:14.971Z,11.33
2022-11-30T17:01:47.747Z,11.77
2022-11-30T17:04:19.162Z,11.60
2022-11-30T17:06:50.517Z,13.27
2022-11-30T17:09:21.636Z,12.97
2022-11-30T17:11:51.989Z,11.83
2022-11-30T17:14:20.912Z,11.47
2022-11-30T17:16:48.823Z,12.40
2022-11-30T17:19:16.799Z,12.83
2022-11-30T17:21:44.930Z,12.63
2022-11-30T17:24:13.654Z,13.77
2022-11-30T17:26:41.776Z,13.13
2022-11-30T17:29:10.933Z,12.30
2022-11-30T17:31:38.819Z,14.10
2022-11-30T17:34:08.427Z,13.20
2022-11-30T17:36:36.260Z,13.97
2022-11-30T17:39:07.044Z,13.23
2022-11-30T17:41:35.428Z,13.23
2022-11-30T17:44:03.858Z,12.43
2022-11-30T17:46:33.142Z,12.10
2022-11-30T17:49:01.044Z,12.07
2022-11-30T17:51:29.151Z,12.80
2022-11-30T17:53:57.611Z,12.97
2022-11-30T17:56:25.977Z,12.97
2022-11-30T17:58:53.842Z,12.47
2022-11-30T18:01:23.832Z,13.33
2022-11-30T18:03:53.650Z,13.33
2022-11-30T18:06:21.602Z,13.87
2022-11-30T18:08:49.676Z,12.10
2022-11-30T18:11:20.308Z,12.87
2022-11-30T18:13:48.669Z,12.20
2022-11-30T18:16:18.642Z,12.23
2022-11-30T18:18:48.358Z,12.40
2022-11-30T18:21:20.505Z,12.30
2022-11-30T18:23:49.240Z,11.10
2022-11-30T18:26:19.326Z,12.20
2022-11-30T18:28:48.233Z,12.70
2022-11-30T18:31:16.152Z,12.77
2022-11-30T18:33:44.166Z,11.93
2022-11-30T18:36:12.053Z,11.47
2022-11-30T18:38:42.438Z,11.50
2022-11-30T18:41:11.093Z,12.47
2022-11-30T18:43:39.619Z,11.63
2022-11-30T18:46:09.433Z,12.63
2022-11-30T18:48:38.078Z,11.17
2022-11-30T18:51:13.555Z,11.67
2022-11-30T18:53:43.630Z,11.40
2022-11-30T18:56:17.414Z,10.97
2022-11-30T18:58:46.582Z,10.87
2022-11-30T19:01:19.079Z,12.07
2022-11-30T19:03:51.488Z,10.87
2022-11-30T19:06:19.791Z,10.37
2022-11-30T19:08:49.735Z,11.60
2022-11-30T19:11:18.684Z,11.40
2022-11-30T19:13:46.714Z,11.97
2022-11-30T19:16:17.527Z,10.70
2022-11-30T19:18:45.973Z,11.33
2022-11-30T19:21:17.116Z,11.77
2022-11-30T19:23:45.755Z,11.03
2022-11-30T19:26:15.596Z,11.57
2022-11-30T19:28:45.723Z,10.63
2022-11-30T19:31:15.937Z,12.27
2022-11-30T19:33:45.480Z,12.37
2022-11-30T19:36:16.111Z,11.77
2022-11-30T19:38:43.958Z,11.67
2022-11-30T19:41:16.442Z,12.63
2022-11-30T19:43:49.534Z,11.80
2022-11-30T19:46:21.805Z,11.00
2022-11-30T19:48:51.512Z,11.80
2022-11-30T19:51:19.319Z,12.30
2022-11-30T19:53:47.165Z,12.53
2022-11-30T19:56:18.370Z,11.77
2022-11-30T19:58:47.402Z,11.13
2022-11-30T20:01:16.036Z,11.20
2022-11-30T20:03:45.055Z,12.00
2022-11-30T20:06:13.388Z,11.10
2022-11-30T20:08:42.158Z,12.03
2022-11-30T20:11:12.407Z,12.13
2022-11-30T20:13:41.836Z,12.23
2022-11-30T20:16:11.289Z,12.53
2022-11-30T20:18:45.540Z,12.63
2022-11-30T20:21:15.714Z,12.53
2022-11-30T20:23:44.865Z,12.03
2022-11-30T20:26:14.951Z,14.53
2022-11-30T20:28:44.873Z,13.53
2022-11-30T20:31:14.776Z,12.27
2022-11-30T20:33:43.447Z,12.00
2022-11-30T20:36:12.587Z,12.63
2022-11-30T20:38:40.915Z,12.87
2022-11-30T20:41:12.218Z,11.60
2022-11-30T20:43:40.421Z,12.87
2022-11-30T20:46:18.024Z,12.47
2022-11-30T20:48:46.431Z,12.07
2022-11-30T20:51:32.587Z,13.17
2022-11-30T20:54:02.419Z,12.90
2022-11-30T20:56:30.331Z,13.50
2022-11-30T20:59:02.081Z,12.70
2022-11-30T21:01:31.599Z,12.33
2022-11-30T21:04:00.939Z,12.80
2022-11-30T21:06:29.683Z,13.27
2022-11-30T21:08:57.957Z,11.60
2022-11-30T21:11:26.716Z,12.77
2022-11-30T21:13:54.877Z,12.53
2022-11-30T21:16:28.225Z,12.87
2022-11-30T21:18:59.524Z,13.30
2022-11-30T21:21:30.549Z,12.13
2022-11-30T21:24:00.049Z,10.97
2022-11-30T21:26:29.953Z,10.73
2022-11-30T21:29:01.504Z,10.30
2022-11-30T21:31:29.688Z,10.40
2022-11-30T21:33:59.223Z,9.67
2022-11-30T21:36:27.470Z,10.53
2022-11-30T21:39:02.626Z,9.90
2022-11-30T21:41:33.499Z,10.10
2022-11-30T21:44:01.320Z,9.67
2022-11-30T21:46:30.123Z,10.60
2022-11-30T21:48:59.473Z,12.30
2022-11-30T21:51:29.183Z,11.37
2022-11-30T21:53:58.960Z,10.87
2022-11-30T21:56:28.713Z,10.30
2022-11-30T21:58:56.803Z,10.30
2022-11-30T22:01:27.467Z,10.60
2022-11-30T22:03:55.954Z,9.47
2022-11-30T22:06:26.601Z,10.63
2022-11-30T22:08:56.982Z,10.13
2022-11-30T22:11:25.119Z,9.77
2022-11-30T22:13:54.249Z,9.73
2022-11-30T22:16:23.570Z,11.10
2022-11-30T22:18:54.440Z,9.67
2022-11-30T22:21:24.642Z,9.17
2022-11-30T22:23:56.613Z,9.50
2022-11-30T22:26:26.865Z,9.37
2022-11-30T22:28:57.137Z,10.40
2022-11-30T22:31:26.747Z,10.53
2022-11-30T22:33:54.852Z,11.07
2022-11-30T22:36:24.621Z,11.93
2022-11-30T22:38:57.101Z,9.83
2022-11-30T22:41:25.169Z,9.63
2022-11-30T22:43:53.507Z,10.07
2022-11-30T22:46:23.143Z,11.90
2022-11-30T22:48:51.525Z,10.17
2022-11-30T22:51:21.790Z,10.20
2022-11-30T22:53:50.484Z,11.17
2022-11-30T22:56:21.623Z,14.00
2022-11-30T22:58:50.890Z,11.20
2022-11-30T23:01:20.453Z,11.27
2022-11-30T23:03:50.227Z,9.97
2022-11-30T23:06:20.709Z,11.37
2022-11-30T23:08:49.624Z,11.43
2022-11-30T23:11:21.375Z,11.17
2022-11-30T23:13:49.889Z,11.30
2022-11-30T23:16:18.834Z,11.77
2022-11-30T23:18:49.224Z,10.67
2022-11-30T23:21:19.396Z,10.87
2022-11-30T23:23:47.881Z,9.23
2022-11-30T23:26:17.937Z,10.03
2022-11-30T23:28:49.408Z,9.53
2022-11-30T23:31:33.497Z,12.33
2022-11-30T23:34:05.361Z,10.70
2022-11-30T23:36:33.864Z,12.70
2022-11-30T23:39:03.239Z,10.50
2022-11-30T23:41:31.125Z,12.67
2022-11-30T23:44:00.818Z,11.50
2022-11-30T23:46:28.720Z,12.23
2022-11-30T23:48:56.653Z,13.43
2022-11-30T23:51:25.028Z,12.00
2022-11-30T23:53:52.909Z,13.13
2022-11-30T23:56:22.478Z,13.30
2022-11-30T23:58:50.410Z,13.47
